Time;durP1;ratioP1;P1;durP2;ratioP2;P2;SDS_P1;SDS_P2;PMS_P1;PMS_P2;Temp;Humidity;BMP_temperature;BMP_pressure;BME280_temperature;BME280_humidity;BME280_pressure;Samples;Min_cycle;Max_cycle;Signal;HPM_P1;HPM_P2
2022/01/09 00:01:36;;;;;;;3.45;1.30;;;6.30;99.90;;;;;;6124443;23;20073;-82
2022/01/09 00:04:02;;;;;;;5.70;1.33;;;6.30;99.90;;;;;;6123984;23;20013;-82
2022/01/09 00:06:28;;;;;;;4.05;1.17;;;6.20;99.90;;;;;;6123937;23;20002;-82
2022/01/09 00:08:53;;;;;;;2.35;1.33;;;6.30;99.90;;;;;;6123741;23;20002;-82
2022/01/09 00:11:25;;;;;;;4.22;1.27;;;6.30;99.90;;;;;;6123224;23;20009;-82
2022/01/09 00:13:55;;;;;;;4.60;1.50;;;6.30;99.90;;;;;;6124063;23;20036;-82
2022/01/09 00:16:21;;;;;;;3.25;1.20;;;6.30;99.90;;;;;;6124503;23;20428;-82
2022/01/09 00:18:47;;;;;;;3.00;1.20;;;6.50;99.90;;;;;;6124055;23;20044;-82
2022/01/09 00:21:13;;;;;;;2.92;1.00;;;6.40;99.90;;;;;;6123868;23;20080;-82
2022/01/09 00:23:39;;;;;;;5.32;1.30;;;6.40;99.90;;;;;;6124028;23;20433;-82
2022/01/09 00:26:06;;;;;;;4.53;1.45;;;6.50;99.90;;;;;;6123905;23;20435;-82
2022/01/09 00:28:32;;;;;;;3.33;1.50;;;6.50;99.90;;;;;;6123635;23;20073;-82
2022/01/09 00:30:58;;;;;;;6.65;1.70;;;6.60;99.90;;;;;;6124023;23;20460;-82
2022/01/09 00:33:23;;;;;;;3.40;2.00;;;6.50;99.90;;;;;;6124633;23;20013;-82
2022/01/09 00:35:52;;;;;;;3.17;1.38;;;6.60;99.90;;;;;;6125414;23;20013;-82
2022/01/09 00:38:18;;;;;;;4.88;1.50;;;6.60;99.90;;;;;;6125722;23;20020;-82
2022/01/09 00:40:44;;;;;;;2.65;1.50;;;6.60;99.90;;;;;;6125745;23;20496;-83
2022/01/09 00:43:10;;;;;;;5.00;1.70;;;6.60;99.90;;;;;;6126419;23;20010;-83
2022/01/09 00:45:37;;;;;;;4.68;1.50;;;6.60;99.90;;;;;;6126340;23;20456;-82
2022/01/09 00:48:03;;;;;;;1.80;1.20;;;6.70;99.90;;;;;;6099553;23;20017;-82
2022/01/09 00:50:29;;;;;;;2.72;1.05;;;6.60;99.90;;;;;;6126296;23;20002;-82
2022/01/09 00:52:54;;;;;;;2.83;1.38;;;6.60;99.90;;;;;;6125534;23;20386;-82
2022/01/09 00:55:20;;;;;;;4.35;1.67;;;6.70;99.90;;;;;;6126429;23;20012;-82
2022/01/09 00:57:45;;;;;;;3.63;1.20;;;6.60;99.90;;;;;;6125969;23;20006;-83
2022/01/09 01:00:13;;;;;;;5.15;1.73;;;7.00;99.90;;;;;;6126184;23;20041;-82
2022/01/09 01:02:39;;;;;;;5.13;1.70;;;6.80;99.90;;;;;;6126236;23;20002;-83
2022/01/09 01:05:06;;;;;;;4.60;1.70;;;6.80;99.90;;;;;;6125565;23;20076;-83
2022/01/09 01:07:32;;;;;;;5.47;1.60;;;6.80;99.90;;;;;;6126700;23;20001;-83
2022/01/09 01:09:58;;;;;;;2.67;1.40;;;6.80;99.90;;;;;;6125744;23;20428;-82
2022/01/09 01:12:25;;;;;;;2.58;1.52;;;6.80;99.90;;;;;;6126301;23;20002;-82
2022/01/09 01:14:51;;;;;;;4.28;1.30;;;6.90;99.90;;;;;;6125735;23;20013;-82
2022/01/09 01:17:16;;;;;;;4.88;1.33;;;6.80;99.90;;;;;;6125856;23;20010;-82
2022/01/09 01:19:42;;;;;;;3.75;0.90;;;6.60;99.90;;;;;;6099466;23;20417;-83
2022/01/09 01:22:08;;;;;;;1.23;0.40;;;5.80;99.90;;;;;;6125657;23;20010;-83
2022/01/09 01:24:36;;;;;;;2.60;0.60;;;5.60;99.90;;;;;;6125520;23;20428;-83
2022/01/09 01:27:02;;;;;;;4.38;0.70;;;5.70;99.90;;;;;;6125570;23;20377;-83
2022/01/09 01:29:28;;;;;;;2.42;0.60;;;5.40;99.90;;;;;;6125650;23;20057;-83
2022/01/09 01:31:53;;;;;;;1.92;0.50;;;5.30;99.90;;;;;;6125785;23;20047;-83
2022/01/09 01:34:19;;;;;;;2.53;0.75;;;5.20;99.90;;;;;;6127124;23;20014;-83
2022/01/09 01:36:46;;;;;;;3.75;0.50;;;5.50;99.90;;;;;;6125160;23;20029;-83
2022/01/09 01:39:11;;;;;;;3.35;0.57;;;5.40;99.90;;;;;;6125583;23;20481;-83
2022/01/09 01:41:37;;;;;;;2.53;0.60;;;5.40;99.90;;;;;;6125601;23;20030;-83
2022/01/09 01:44:07;;;;;;;2.17;0.65;;;5.10;99.90;;;;;;6125097;23;20010;-83
2022/01/09 01:46:33;;;;;;;4.45;0.80;;;5.20;99.90;;;;;;6099233;23;20033;-83
2022/01/09 01:48:59;;;;;;;3.47;0.90;;;5.20;99.90;;;;;;6125377;23;20336;-83
2022/01/09 01:51:24;;;;;;;2.38;0.70;;;5.20;99.90;;;;;;6124800;23;20029;-83
2022/01/09 01:53:54;;;;;;;2.85;0.73;;;5.10;99.90;;;;;;6125896;23;20073;-83
2022/01/09 01:56:20;;;;;;;2.92;0.80;;;5.10;99.90;;;;;;6124795;23;20006;-83
2022/01/09 01:58:47;;;;;;;1.70;0.50;;;5.20;99.90;;;;;;6125641;23;20018;-83
2022/01/09 02:01:13;;;;;;;2.47;0.40;;;5.20;99.90;;;;;;6125784;23;20010;-83
2022/01/09 02:03:39;;;;;;;1.98;0.73;;;5.30;99.90;;;;;;6125355;23;20013;-83
2022/01/09 02:06:05;;;;;;;1.05;0.60;;;5.40;99.90;;;;;;6124991;23;20080;-83
2022/01/09 02:08:31;;;;;;;3.83;0.57;;;5.40;99.90;;;;;;6125042;23;20726;-83
2022/01/09 02:10:57;;;;;;;3.70;0.93;;;5.30;99.90;;;;;;6125056;23;20053;-83
2022/01/09 02:13:23;;;;;;;2.85;0.80;;;5.50;99.90;;;;;;6124868;23;20366;-83
2022/01/09 02:15:49;;;;;;;2.67;0.80;;;5.20;99.90;;;;;;6125036;23;20029;-83
2022/01/09 02:18:21;;;;;;;1.42;0.80;;;5.00;99.90;;;;;;6124844;23;20437;-83
2022/01/09 02:20:49;;;;;;;4.15;1.00;;;4.80;99.90;;;;;;6124744;23;20097;-83
2022/01/09 02:23:16;;;;;;;5.78;1.00;;;4.80;99.90;;;;;;6124969;23;20009;-83
2022/01/09 02:25:43;;;;;;;3.45;0.82;;;4.80;99.90;;;;;;6124899;23;20041;-83
2022/01/09 02:28:12;;;;;;;3.28;0.90;;;4.70;99.90;;;;;;6125138;23;20009;-83
2022/01/09 02:30:38;;;;;;;2.38;0.85;;;4.70;99.90;;;;;;6126412;23;20424;-83
2022/01/09 02:33:07;;;;;;;6.50;1.00;;;4.70;99.90;;;;;;6124592;23;20093;-83
2022/01/09 02:35:33;;;;;;;2.08;0.60;;;4.90;99.90;;;;;;6124286;23;20238;-83
2022/01/09 02:38:00;;;;;;;3.13;1.13;;;4.50;99.90;;;;;;6125360;23;20306;-83
2022/01/09 02:40:25;;;;;;;5.07;1.40;;;4.40;99.90;;;;;;6125778;23;20040;-83
2022/01/09 02:42:52;;;;;;;3.47;1.55;;;4.40;99.90;;;;;;6123727;23;20421;-83
2022/01/09 02:45:21;;;;;;;3.35;1.52;;;4.30;99.90;;;;;;6125500;23;20057;-83
2022/01/09 02:47:48;;;;;;;5.63;1.35;;;4.60;99.90;;;;;;6125042;23;20009;-83
2022/01/09 02:50:37;;;;;;;3.63;1.23;;;4.20;99.90;;;;;;6124740;23;20006;-83
2022/01/09 02:53:14;;;;;;;4.13;1.00;;;4.40;99.90;;;;;;6124439;23;20432;-83
2022/01/09 02:55:41;;;;;;;5.18;1.20;;;4.10;99.90;;;;;;6124708;23;20129;-83
2022/01/09 02:58:06;;;;;;;4.60;1.10;;;4.40;99.90;;;;;;6124650;23;20063;-83
2022/01/09 03:00:39;;;;;;;6.07;1.10;;;4.10;99.90;;;;;;6124580;23;20322;-83
2022/01/09 03:03:05;;;;;;;3.05;1.02;;;4.10;99.90;;;;;;6124678;23;20002;-83
2022/01/09 03:05:32;;;;;;;5.28;1.25;;;4.20;99.90;;;;;;6124863;23;20040;-83
2022/01/09 03:07:58;;;;;;;2.60;1.00;;;4.20;99.90;;;;;;6124548;23;20069;-83
2022/01/09 03:10:24;;;;;;;6.70;1.15;;;4.30;99.90;;;;;;6125387;23;20029;-83
2022/01/09 03:12:52;;;;;;;2.90;0.93;;;4.80;99.90;;;;;;6123857;23;20078;-83
2022/01/09 03:15:18;;;;;;;4.55;1.15;;;4.70;99.90;;;;;;6124771;23;20017;-83
2022/01/09 03:17:44;;;;;;;3.50;0.90;;;4.80;99.90;;;;;;6124840;23;19998;-84
2022/01/09 03:20:16;;;;;;;5.38;1.17;;;4.80;99.90;;;;;;6124321;23;20445;-83
2022/01/09 03:22:43;;;;;;;2.78;0.77;;;4.70;99.90;;;;;;6124516;23;20002;-83
2022/01/09 03:25:10;;;;;;;6.13;1.13;;;4.80;99.90;;;;;;6124232;23;20341;-83
2022/01/09 03:27:37;;;;;;;3.78;0.80;;;5.10;99.90;;;;;;6124773;23;20006;-84
2022/01/09 03:30:05;;;;;;;3.03;1.10;;;5.30;99.90;;;;;;6124261;23;20002;-83
2022/01/09 03:32:31;;;;;;;3.92;1.63;;;4.60;99.90;;;;;;6123883;23;20017;-83
2022/01/09 03:34:57;;;;;;;2.60;0.95;;;4.70;99.90;;;;;;6124552;23;20009;-83
2022/01/09 03:37:22;;;;;;;6.13;1.00;;;4.80;99.90;;;;;;6125333;23;20026;-84
2022/01/09 03:39:48;;;;;;;4.55;0.93;;;4.90;99.90;;;;;;6123820;23;20429;-84
2022/01/09 03:42:13;;;;;;;5.32;1.00;;;5.40;99.90;;;;;;6124187;23;20005;-83
2022/01/09 03:44:39;;;;;;;6.50;1.65;;;5.00;99.90;;;;;;6124096;23;20318;-84
2022/01/09 03:47:05;;;;;;;7.75;1.10;;;5.00;99.90;;;;;;6123981;23;20162;-83
2022/01/09 03:49:30;;;;;;;2.65;0.93;;;4.90;99.90;;;;;;6124747;23;20030;-84
2022/01/09 03:51:57;;;;;;;7.78;1.23;;;4.90;99.90;;;;;;6124872;23;20041;-84
2022/01/09 03:54:23;;;;;;;5.38;1.25;;;4.90;99.90;;;;;;6123930;23;20073;-83
2022/01/09 03:56:52;;;;;;;3.22;1.23;;;4.70;99.90;;;;;;6124517;23;20469;-83
2022/01/09 03:59:18;;;;;;;2.45;1.17;;;4.70;99.90;;;;;;6124420;23;20025;-83
2022/01/09 04:01:45;;;;;;;4.32;1.10;;;4.60;99.90;;;;;;6124586;23;20012;-84
2022/01/09 04:04:11;;;;;;;4.40;1.33;;;4.50;99.90;;;;;;6124611;23;20016;-83
2022/01/09 04:06:44;;;;;;;4.05;1.80;;;4.20;99.90;;;;;;6123287;23;20025;-83
2022/01/09 04:09:18;;;;;;;2.55;1.10;;;4.10;99.90;;;;;;6123691;23;20006;-83
2022/01/09 04:11:44;;;;;;;4.70;1.23;;;4.10;99.90;;;;;;6124443;23;20081;-83
2022/01/09 04:14:10;;;;;;;5.13;1.23;;;4.60;99.90;;;;;;6124519;23;20002;-83
2022/01/09 04:16:36;;;;;;;3.80;1.40;;;4.30;99.90;;;;;;6123863;23;20441;-84
2022/01/09 04:19:02;;;;;;;5.72;1.23;;;4.40;99.90;;;;;;6124702;23;20449;-83
2022/01/09 04:21:27;;;;;;;6.32;1.35;;;4.40;99.90;;;;;;6123446;23;20006;-83
2022/01/09 04:23:53;;;;;;;5.35;1.27;;;4.50;99.90;;;;;;6124338;23;20477;-83
2022/01/09 04:26:21;;;;;;;3.38;1.65;;;4.60;99.90;;;;;;6124861;23;20445;-83
2022/01/09 04:28:47;;;;;;;4.00;1.50;;;4.20;99.90;;;;;;6123842;23;20467;-84
2022/01/09 04:31:15;;;;;;;5.20;1.33;;;4.00;99.90;;;;;;6097693;23;20397;-83
2022/01/09 04:33:41;;;;;;;5.50;1.35;;;3.90;99.90;;;;;;6124500;23;20348;-84
2022/01/09 04:36:08;;;;;;;2.63;1.05;;;3.80;99.90;;;;;;6123870;23;20009;-84
2022/01/09 04:38:33;;;;;;;3.28;1.20;;;4.00;99.90;;;;;;6124129;23;20101;-83
2022/01/09 04:40:59;;;;;;;5.18;1.30;;;3.60;99.90;;;;;;6124512;23;20010;-83
2022/01/09 04:43:27;;;;;;;3.80;1.27;;;3.50;99.90;;;;;;6123989;23;20333;-83
2022/01/09 04:45:52;;;;;;;7.90;1.73;;;3.50;99.90;;;;;;6123890;23;20010;-84
2022/01/09 04:48:18;;;;;;;4.47;1.50;;;4.00;99.90;;;;;;6124724;23;20009;-83
2022/01/09 04:50:45;;;;;;;4.72;1.30;;;3.50;99.90;;;;;;6122523;23;20306;-84
2022/01/09 04:53:11;;;;;;;14.77;8.10;;;3.40;99.90;;;;;;6123994;23;20102;-83
2022/01/09 04:55:40;;;;;;;6.25;2.08;;;3.40;99.90;;;;;;6124793;23;20010;-84
2022/01/09 04:58:06;;;;;;;7.68;1.92;;;3.40;99.90;;;;;;6124174;23;20006;-84
2022/01/09 05:00:32;;;;;;;6.05;1.80;;;3.30;99.90;;;;;;6123542;23;20061;-83
2022/01/09 05:02:57;;;;;;;6.10;1.88;;;3.30;99.90;;;;;;6098025;23;20058;-83
2022/01/09 05:05:23;;;;;;;6.15;1.70;;;3.30;99.90;;;;;;6123380;23;20009;-84
2022/01/09 05:07:49;;;;;;;4.45;1.88;;;3.30;99.90;;;;;;6124192;23;20002;-84
2022/01/09 05:10:15;;;;;;;6.10;1.85;;;3.30;99.90;;;;;;6124379;23;20017;-83
2022/01/09 05:12:41;;;;;;;4.22;1.42;;;3.20;99.90;;;;;;6124052;23;20046;-83
2022/01/09 05:15:09;;;;;;;4.70;1.67;;;3.30;99.90;;;;;;6123451;23;20005;-84
2022/01/09 05:17:36;;;;;;;6.40;1.90;;;3.50;99.90;;;;;;6124044;23;20037;-83
2022/01/09 05:20:03;;;;;;;5.57;2.17;;;4.00;99.90;;;;;;6123482;23;20024;-84
2022/01/09 05:22:29;;;;;;;5.15;2.20;;;3.80;99.90;;;;;;6124935;23;19998;-83
2022/01/09 05:24:58;;;;;;;6.72;1.85;;;3.90;99.90;;;;;;6125702;23;20006;-84
2022/01/09 05:27:24;;;;;;;6.30;2.10;;;4.00;99.90;;;;;;6124956;23;20477;-84
2022/01/09 05:29:51;;;;;;;6.57;1.98;;;4.00;99.90;;;;;;6125050;23;20050;-84
2022/01/09 05:32:17;;;;;;;7.93;2.20;;;4.00;99.90;;;;;;6125275;23;20045;-84
2022/01/09 05:34:44;;;;;;;13.13;4.30;;;4.10;99.90;;;;;;6125713;23;20417;-84
2022/01/09 05:37:09;;;;;;;11.65;4.90;;;4.20;99.90;;;;;;6125431;23;20326;-84
2022/01/09 05:39:35;;;;;;;7.55;4.10;;;4.30;99.90;;;;;;6125700;23;20006;-84
2022/01/09 05:42:05;;;;;;;14.48;6.00;;;4.30;99.90;;;;;;6125532;23;20005;-83
2022/01/09 05:44:32;;;;;;;11.75;5.10;;;4.20;99.90;;;;;;6125090;23;20002;-83
2022/01/09 05:46:58;;;;;;;12.23;4.55;;;4.10;99.90;;;;;;6125268;23;20429;-84
2022/01/09 05:49:24;;;;;;;16.50;7.95;;;4.20;99.90;;;;;;6125668;23;20085;-84
2022/01/09 05:51:49;;;;;;;14.63;5.72;;;4.20;99.90;;;;;;6125845;23;20392;-84
2022/01/09 05:54:15;;;;;;;10.77;4.55;;;4.10;99.90;;;;;;6125834;23;20002;-84
2022/01/09 05:56:40;;;;;;;8.65;3.03;;;4.10;99.90;;;;;;6124569;23;20437;-84
2022/01/09 05:59:06;;;;;;;9.05;1.95;;;4.60;99.90;;;;;;6125195;23;20002;-84
2022/01/09 06:01:32;;;;;;;5.50;1.85;;;4.00;99.90;;;;;;6125859;23;20021;-84
2022/01/09 06:03:57;;;;;;;5.30;1.90;;;4.30;99.90;;;;;;6125199;23;19998;-84
2022/01/09 06:06:23;;;;;;;4.22;1.95;;;4.00;99.90;;;;;;6124530;23;20009;-84
2022/01/09 06:08:49;;;;;;;6.70;2.58;;;3.90;99.90;;;;;;6125925;23;20009;-84
2022/01/09 06:11:14;;;;;;;7.35;2.75;;;3.90;99.90;;;;;;6124917;23;20369;-84
2022/01/09 06:13:40;;;;;;;8.95;2.40;;;3.90;99.90;;;;;;6126249;23;20010;-84
2022/01/09 06:16:07;;;;;;;7.90;2.65;;;4.10;99.90;;;;;;6125377;23;20085;-84
2022/01/09 06:18:32;;;;;;;9.57;2.60;;;3.70;99.90;;;;;;6125485;23;20009;-84
2022/01/09 06:20:58;;;;;;;9.07;2.47;;;3.60;99.90;;;;;;6124424;23;20018;-84
2022/01/09 06:23:24;;;;;;;6.03;2.67;;;3.90;99.90;;;;;;6098981;23;20057;-84
2022/01/09 06:25:50;;;;;;;7.57;2.33;;;3.50;99.90;;;;;;6125175;23;20458;-85
2022/01/09 06:28:17;;;;;;;6.55;2.55;;;4.00;99.90;;;;;;6114108;23;20006;-84
2022/01/09 06:30:43;;;;;;;7.55;2.30;;;3.40;99.90;;;;;;6125755;23;20006;-84
2022/01/09 06:33:10;;;;;;;5.28;3.00;;;4.10;99.90;;;;;;6124130;23;20024;-84
2022/01/09 06:35:36;;;;;;;7.00;2.97;;;3.50;99.90;;;;;;6124230;23;20034;-83
2022/01/09 06:38:03;;;;;;;9.65;3.33;;;3.50;99.90;;;;;;6125309;23;20006;-84
2022/01/09 06:40:29;;;;;;;8.82;3.00;;;3.70;99.90;;;;;;6124867;23;20037;-84
2022/01/09 06:42:55;;;;;;;8.13;2.88;;;3.90;99.90;;;;;;6124941;23;20056;-84
2022/01/09 06:45:23;;;;;;;7.65;2.95;;;3.40;99.90;;;;;;6124780;23;20038;-84
2022/01/09 06:47:48;;;;;;;9.15;3.20;;;3.50;99.90;;;;;;6124980;23;20006;-84
2022/01/09 06:50:15;;;;;;;9.32;3.00;;;3.40;99.90;;;;;;6124668;23;20447;-84
2022/01/09 06:52:41;;;;;;;5.85;3.20;;;3.30;99.90;;;;;;6124957;23;20045;-84
2022/01/09 06:55:08;;;;;;;9.63;3.20;;;3.30;99.90;;;;;;6124476;23;20333;-84
2022/01/09 06:57:34;;;;;;;11.50;3.25;;;3.40;99.90;;;;;;6124693;23;20005;-84
2022/01/09 07:00:00;;;;;;;7.43;3.10;;;3.30;99.90;;;;;;6125363;23;20018;-84
2022/01/09 07:02:25;;;;;;;9.40;3.30;;;3.30;99.90;;;;;;6124998;23;20002;-84
2022/01/09 07:04:51;;;;;;;7.60;3.63;;;3.30;99.90;;;;;;6124176;23;20013;-84
2022/01/09 07:07:17;;;;;;;8.15;3.70;;;3.30;99.90;;;;;;6124051;23;20365;-84
2022/01/09 07:09:42;;;;;;;8.15;3.60;;;3.30;99.90;;;;;;6124935;23;20008;-84
2022/01/09 07:12:09;;;;;;;10.80;3.78;;;3.30;99.90;;;;;;6124974;23;20408;-84
2022/01/09 07:14:35;;;;;;;8.73;3.22;;;3.40;99.90;;;;;;6124610;23;20468;-84
2022/01/09 07:17:01;;;;;;;10.77;4.32;;;3.40;99.90;;;;;;6124543;23;20009;-84
2022/01/09 07:19:27;;;;;;;14.25;4.72;;;3.50;99.90;;;;;;6123609;23;20018;-84
2022/01/09 07:21:53;;;;;;;14.70;5.40;;;3.50;99.90;;;;;;6124740;23;20421;-84
2022/01/09 07:24:18;;;;;;;11.98;5.75;;;3.50;99.90;;;;;;6123619;23;20056;-86
2022/01/09 07:26:44;;;;;;;12.77;5.30;;;4.00;99.90;;;;;;6123816;23;20006;-86
2022/01/09 07:29:09;;;;;;;14.27;5.80;;;3.60;1.00;;;;;;6098262;23;20010;-86
2022/01/09 07:31:35;;;;;;;14.20;5.63;;;4.10;1.00;;;;;;6124235;23;20093;-87
2022/01/09 07:34:01;;;;;;;13.60;6.55;;;4.20;99.90;;;;;;6123651;23;20010;-88
2022/01/09 07:36:26;;;;;;;15.73;6.95;;;3.80;99.90;;;;;;6124461;23;20030;-88
2022/01/09 07:38:52;;;;;;;14.48;6.05;;;3.80;1.00;;;;;;6124381;23;20045;-84
2022/01/09 07:41:18;;;;;;;13.30;5.57;;;4.30;99.90;;;;;;6124158;23;20006;-87
2022/01/09 07:43:43;;;;;;;15.20;4.82;;;3.70;99.90;;;;;;6124276;23;20006;-86
2022/01/09 07:46:10;;;;;;;10.13;4.82;;;3.70;99.90;;;;;;6124528;23;20080;-87
2022/01/09 07:48:35;;;;;;;12.20;4.60;;;3.70;99.90;;;;;;6124025;23;19998;-85
2022/01/09 07:51:01;;;;;;;7.80;4.65;;;3.60;99.90;;;;;;6124451;23;20002;-87
2022/01/09 07:53:27;;;;;;;11.05;3.88;;;4.20;47.20;;;;;;6124055;23;20010;-87
2022/01/09 07:55:53;;;;;;;9.90;4.30;;;3.80;1.00;;;;;;6123599;23;20333;-87
2022/01/09 07:58:22;;;;;;;12.95;3.92;;;3.90;1.00;;;;;;6124453;23;20006;-87
2022/01/09 08:00:47;;;;;;;10.30;3.38;;;4.00;1.00;;;;;;6124740;23;20010;-86
2022/01/09 08:03:14;;;;;;;18.83;7.80;;;4.10;1.00;;;;;;6096828;23;19995;-86
2022/01/09 08:05:40;;;;;;;13.75;6.82;;;4.00;1.00;;;;;;6123979;23;20017;-86
2022/01/09 08:08:06;;;;;;;9.70;5.68;;;4.30;1.00;;;;;;6097803;23;20006;-87
2022/01/09 08:10:32;;;;;;;19.98;9.20;;;4.90;1.00;;;;;;6124813;23;20010;-86
2022/01/09 08:12:59;;;;;;;16.08;8.20;;;4.20;99.90;;;;;;6124527;23;20053;-86
2022/01/09 08:15:25;;;;;;;14.55;7.90;;;4.00;99.90;;;;;;6124864;23;20084;-86
2022/01/09 08:17:53;;;;;;;15.70;8.45;;;4.20;99.90;;;;;;6123710;23;20092;-85
2022/01/09 08:20:19;;;;;;;17.85;9.73;;;4.00;99.90;;;;;;6123243;23;20089;-86
2022/01/09 08:22:44;;;;;;;18.90;8.63;;;4.10;99.90;;;;;;6123584;23;20006;-86
2022/01/09 08:25:14;;;;;;;15.38;8.20;;;4.40;99.90;;;;;;6125333;23;20016;-86
2022/01/09 08:27:40;;;;;;;16.30;7.30;;;4.20;99.90;;;;;;6124581;23;20026;-86
2022/01/09 08:30:07;;;;;;;12.43;6.60;;;4.20;99.90;;;;;;6124295;23;20456;-86
2022/01/09 08:32:34;;;;;;;17.85;7.47;;;4.30;99.90;;;;;;6123397;23;20076;-85
2022/01/09 08:35:00;;;;;;;13.18;7.57;;;4.90;99.90;;;;;;6123964;23;20656;-86
2022/01/09 08:37:26;;;;;;;14.63;7.22;;;4.30;99.90;;;;;;6123618;23;20008;-86
2022/01/09 08:39:51;;;;;;;16.98;7.18;;;4.30;99.90;;;;;;6125330;23;20085;-86
2022/01/09 08:42:17;;;;;;;11.15;5.82;;;4.40;99.90;;;;;;6124149;23;20002;-86
2022/01/09 08:44:43;;;;;;;9.63;5.90;;;4.40;99.90;;;;;;6124462;23;20009;-85
2022/01/09 08:47:09;;;;;;;13.60;5.97;;;5.20;99.90;;;;;;6124068;23;20006;-86
2022/01/09 08:49:35;;;;;;;16.08;6.40;;;4.70;99.90;;;;;;6124113;23;20002;-86
2022/01/09 08:52:01;;;;;;;15.75;6.03;;;5.50;99.90;;;;;;6123872;23;20060;-86
2022/01/09 08:54:27;;;;;;;14.57;6.82;;;4.90;99.90;;;;;;6124624;23;20024;-86
2022/01/09 08:56:53;;;;;;;14.48;5.57;;;5.30;99.90;;;;;;6124656;23;20009;-86
2022/01/09 08:59:19;;;;;;;14.20;5.70;;;5.60;99.90;;;;;;6125867;23;20096;-86
2022/01/09 09:01:45;;;;;;;15.45;6.05;;;4.90;99.90;;;;;;6125692;23;20009;-86
2022/01/09 09:04:12;;;;;;;16.27;5.90;;;5.30;99.90;;;;;;6126136;23;20341;-86
2022/01/09 09:06:38;;;;;;;11.10;5.35;;;5.00;99.90;;;;;;6124839;23;20032;-86
2022/01/09 09:09:04;;;;;;;15.48;6.30;;;5.60;99.90;;;;;;6125831;23;20016;-86
2022/01/09 09:11:30;;;;;;;13.73;6.05;;;5.00;99.90;;;;;;6126388;23;20006;-86
2022/01/09 09:13:55;;;;;;;16.10;5.88;;;5.10;99.90;;;;;;6125844;23;20407;-86
2022/01/09 09:16:21;;;;;;;12.95;5.90;;;5.80;99.90;;;;;;6125955;23;20006;-86
2022/01/09 09:18:49;;;;;;;14.38;5.97;;;5.80;99.90;;;;;;6125046;23;20010;-86
2022/01/09 09:21:16;;;;;;;9.45;6.20;;;5.80;99.90;;;;;;6125283;23;20018;-86
2022/01/09 09:23:42;;;;;;;11.68;7.00;;;5.70;99.90;;;;;;6125587;23;20010;-86
2022/01/09 09:26:08;;;;;;;22.83;7.78;;;5.30;99.90;;;;;;6125990;23;20010;-86
2022/01/09 09:28:34;;;;;;;16.67;7.70;;;5.20;99.90;;;;;;6125610;23;20009;-86
2022/01/09 09:30:59;;;;;;;21.73;7.93;;;5.30;99.90;;;;;;6125538;23;19998;-87
2022/01/09 09:33:25;;;;;;;19.73;9.30;;;5.70;99.90;;;;;;6126923;23;20088;-87
2022/01/09 09:35:52;;;;;;;16.67;8.05;;;5.30;99.90;;;;;;6125706;23;19998;-87
2022/01/09 09:38:17;;;;;;;20.70;5.90;;;5.40;99.90;;;;;;6099713;23;20518;-87
2022/01/09 09:40:43;;;;;;;16.92;6.03;;;5.30;99.90;;;;;;6125766;23;20010;-86
2022/01/09 09:43:09;;;;;;;15.32;6.20;;;5.60;99.90;;;;;;6125365;23;20002;-86
2022/01/09 09:45:35;;;;;;;16.58;5.93;;;5.40;99.90;;;;;;6125597;23;20077;-86
2022/01/09 09:48:01;;;;;;;16.80;5.80;;;5.50;99.90;;;;;;6125359;23;20033;-86
2022/01/09 09:50:26;;;;;;;15.02;5.15;;;5.90;99.90;;;;;;6125864;23;20006;-87
2022/01/09 09:52:52;;;;;;;14.50;6.25;;;5.70;99.90;;;;;;6126072;23;20006;-87
2022/01/09 09:55:18;;;;;;;14.20;5.63;;;5.60;99.90;;;;;;6125645;23;20077;-86
2022/01/09 09:57:46;;;;;;;16.67;5.78;;;5.90;99.90;;;;;;6125209;23;20005;-86
2022/01/09 10:00:18;;;;;;;13.75;5.75;;;5.60;99.90;;;;;;6125544;23;20014;-86
2022/01/09 10:02:49;;;;;;;10.27;5.13;;;5.60;99.90;;;;;;6124958;23;20388;-86
2022/01/09 10:05:27;;;;;;;14.90;5.25;;;5.70;99.90;;;;;;6125231;23;20006;-87
2022/01/09 10:07:54;;;;;;;12.40;4.90;;;6.20;99.90;;;;;;6125543;23;20109;-86
2022/01/09 10:10:28;;;;;;;16.35;4.85;;;5.70;99.90;;;;;;6125545;23;20381;-83
2022/01/09 10:13:08;;;;;;;14.50;4.90;;;5.70;99.90;;;;;;6125291;23;20006;-87
2022/01/09 10:15:51;;;;;;;9.77;4.60;;;5.70;99.90;;;;;;6125606;23;20010;-86
2022/01/09 10:18:41;;;;;;;17.13;5.43;;;5.60;99.90;;;;;;6125400;23;20417;-86
2022/01/09 10:21:11;;;;;;;10.40;5.68;;;5.60;99.90;;;;;;6125530;23;20352;-86
2022/01/09 10:23:56;;;;;;;16.05;5.85;;;5.50;99.90;;;;;;6125293;23;20005;-86
2022/01/09 10:26:24;;;;;;;10.73;6.50;;;5.50;99.90;;;;;;6125687;23;20005;-86
2022/01/09 10:28:49;;;;;;;12.07;6.50;;;5.40;99.90;;;;;;6125328;23;20500;-86
2022/01/09 10:31:16;;;;;;;13.13;5.22;;;6.00;99.90;;;;;;6124489;23;20018;-86
2022/01/09 10:34:07;;;;;;;15.73;5.15;;;6.40;99.90;;;;;;6123997;23;20002;-86
2022/01/09 10:36:43;;;;;;;15.57;6.13;;;6.00;99.90;;;;;;6124133;23;20002;-85
2022/01/09 10:39:32;;;;;;;14.18;5.53;;;6.60;99.90;;;;;;6122207;23;20006;-86
2022/01/09 10:42:01;;;;;;;12.10;5.82;;;6.70;99.90;;;;;;6124121;23;20010;-87
2022/01/09 10:44:34;;;;;;;13.18;5.40;;;6.30;99.90;;;;;;6123977;23;20013;-84
2022/01/09 10:47:05;;;;;;;16.60;5.35;;;6.80;99.90;;;;;;6122655;23;20014;-84
2022/01/09 10:49:49;;;;;;;13.07;5.80;;;6.50;99.90;;;;;;6124299;23;20005;-89
2022/01/09 10:52:21;;;;;;;13.65;4.85;;;6.30;99.90;;;;;;6125887;23;20440;-88
2022/01/09 10:54:49;;;;;;;18.98;6.13;;;6.40;99.90;;;;;;6124059;23;20012;-89
2022/01/09 10:57:21;;;;;;;14.70;5.78;;;6.80;99.90;;;;;;6124735;23;20013;-88
2022/01/09 10:59:47;;;;;;;11.98;5.20;;;6.30;99.90;;;;;;6123528;23;20345;-93
2022/01/09 11:02:13;;;;;;;12.55;4.47;;;6.40;99.90;;;;;;6123726;23;20009;-88
2022/01/09 11:04:44;;;;;;;10.80;4.32;;;6.50;99.90;;;;;;6097889;23;20093;-83
2022/01/09 11:07:11;;;;;;;10.45;4.57;;;6.30;99.90;;;;;;6124538;23;20006;-87
2022/01/09 11:09:38;;;;;;;12.80;4.40;;;6.80;99.90;;;;;;6123950;23;20056;-89
2022/01/09 11:12:06;;;;;;;13.48;3.55;;;6.40;99.90;;;;;;6123180;23;20069;-83
2022/01/09 11:14:36;;;;;;;11.45;3.00;;;6.40;99.90;;;;;;6096919;23;20401;-90
2022/01/09 11:17:05;;;;;;;12.30;3.38;;;6.50;99.90;;;;;;6124423;23;20014;-89
2022/01/09 11:19:33;;;;;;;12.32;3.17;;;6.40;99.90;;;;;;6123603;23;20016;-91
2022/01/09 11:22:01;;;;;;;8.95;3.03;;;6.70;99.90;;;;;;6124092;23;20024;-90
2022/01/09 11:24:39;;;;;;;9.38;2.72;;;6.80;99.90;;;;;;6097516;23;20388;-90
2022/01/09 11:27:24;;;;;;;8.57;2.17;;;6.40;99.90;;;;;;6097289;23;20021;-88
2022/01/09 11:29:58;;;;;;;9.73;2.53;;;6.70;99.90;;;;;;6124585;23;20009;-87
2022/01/09 11:32:36;;;;;;;7.57;2.30;;;6.60;99.90;;;;;;6124811;23;20018;-87
2022/01/09 11:35:28;;;;;;;12.57;2.83;;;6.50;99.90;;;;;;6124425;23;20010;-88
2022/01/09 11:38:03;;;;;;;8.35;2.15;;;6.80;99.90;;;;;;6124915;23;20073;-88
2022/01/09 11:40:33;;;;;;;8.07;2.00;;;6.50;99.90;;;;;;6124312;23;20010;-90
2022/01/09 11:43:03;;;;;;;11.73;2.10;;;6.50;99.90;;;;;;6124763;23;20002;-88
2022/01/09 11:45:44;;;;;;;8.30;1.88;;;6.50;99.90;;;;;;6097676;23;20060;-87
2022/01/09 11:48:11;;;;;;;9.80;2.08;;;6.50;99.90;;;;;;6124903;23;20508;-88
2022/01/09 11:50:56;;;;;;;10.73;2.63;;;6.40;99.90;;;;;;6125357;23;20002;-88
2022/01/09 11:53:22;;;;;;;8.02;2.28;;;6.70;99.90;;;;;;6097684;23;20133;-87
2022/01/09 11:55:48;;;;;;;12.50;2.40;;;6.60;99.90;;;;;;6124491;23;20034;-86
2022/01/09 11:58:19;;;;;;;9.95;2.63;;;6.90;99.90;;;;;;6124321;23;20365;-85
2022/01/09 12:00:44;;;;;;;13.43;2.30;;;7.00;99.90;;;;;;6122890;23;20022;-85
2022/01/09 12:03:34;;;;;;;10.77;2.30;;;6.60;99.90;;;;;;6124263;23;20456;-89
2022/01/09 12:06:11;;;;;;;11.13;2.25;;;7.10;99.90;;;;;;6125162;23;20040;-89
2022/01/09 12:08:57;;;;;;;7.45;2.85;;;6.60;99.90;;;;;;6124093;23;19998;-89
2022/01/09 12:12:01;;;;;;;10.50;2.60;;;7.10;99.90;;;;;;6124522;23;20445;-86
2022/01/09 12:14:44;;;;;;;8.70;2.33;;;6.40;99.90;;;;;;6124530;23;20340;-93
2022/01/09 12:17:28;;;;;;;14.35;2.97;;;6.70;99.90;;;;;;6126910;23;20005;-90
2022/01/09 12:20:12;;;;;;;11.35;2.75;;;6.50;99.90;;;;;;6125263;23;20093;-89
2022/01/09 12:25:22;;;;;;;12.13;3.20;;;6.20;99.90;;;;;;6125877;23;20441;-96
2022/01/09 12:27:56;;;;;;;11.00;3.20;;;6.10;99.90;;;;;;6125143;23;20060;-92
2022/01/09 12:30:44;;;;;;;8.48;2.38;;;6.70;99.90;;;;;;6098295;23;20010;-92
2022/01/09 12:33:21;;;;;;;7.88;2.00;;;6.30;99.90;;;;;;6127972;23;20073;-92
2022/01/09 12:35:59;;;;;;;9.32;2.55;;;5.90;99.90;;;;;;6127493;23;20050;-92
2022/01/09 12:38:28;;;;;;;9.07;2.72;;;6.10;99.90;;;;;;6127978;23;20033;-92
2022/01/09 12:40:58;;;;;;;10.27;3.10;;;6.20;99.90;;;;;;6128412;23;20102;-91
2022/01/09 12:43:26;;;;;;;14.52;3.22;;;6.10;99.90;;;;;;6101596;23;20344;-91
2022/01/09 12:45:52;;;;;;;9.95;3.85;;;6.10;99.90;;;;;;6127243;23;20096;-92
2022/01/09 12:48:19;;;;;;;11.77;4.53;;;6.00;99.90;;;;;;6101322;23;20040;-91
2022/01/09 12:50:47;;;;;;;7.75;3.05;;;6.40;99.90;;;;;;6101314;23;20036;-92
2022/01/09 12:53:21;;;;;;;6.85;2.75;;;6.70;99.90;;;;;;6101328;23;20353;-92
2022/01/09 12:56:10;;;;;;;9.38;2.78;;;6.10;99.90;;;;;;6127534;23;20020;-92
2022/01/09 12:58:38;;;;;;;8.45;2.42;;;6.10;99.90;;;;;;6101814;23;20045;-92
2022/01/09 13:01:19;;;;;;;10.45;2.50;;;6.10;99.90;;;;;;6127322;23;20452;-92